CheckWX is a tool to help pilots better visualize weather data.  It is not intended as a substitute for an official pre-flight weather briefing.

20:32:46 UTC

KDSV METAR
Dansville Municipal Airport
Dansville, New York, USA
Current

39 mins ago

KDSV 311954Z AUTO 32013KT 10SM SCT060 15/01 A3021 RMK AO2 SLP240 T01500011
Observed
May-31 @ 19:54 UTC
Wind
  • 320° at 13 KTS
Visibility
Flight Rules
VFR
Cloud Levels
  • Scattered at 6,000' AGL
Temperature
15°C / 59°F
Dewpoint
C / 34°F
Humidity
39%
Altimeter
30.21" Hg
Pressure
1023.02 hPa
Previous

2 hours ago

KDSV 311854Z AUTO 34015G21KT 10SM BKN060 16/02 A3022 RMK AO2 SLP242 T01560022
Observed
May-31 @ 18:54 UTC
Wind
  • 340° at 15 KTS
  • Gusting to 21 KTS
Visibility
Flight Rules
VFR
Cloud Levels
  • Broken at 6,000' AGL
Temperature
16°C / 61°F
Dewpoint
C / 36°F
Humidity
39%
Altimeter
30.22" Hg
Pressure
1023.42 hPa
Previous

3 hours ago

KDSV 311754Z AUTO 32012G19KT 10SM SCT050 BKN065 14/02 A3021 RMK AO2 SLP240 60000 T01440022 10144 20100 50002
Observed
May-31 @ 17:54 UTC
Wind
  • 320° at 12 KTS
  • Gusting to 19 KTS
Visibility
Flight Rules
VFR
Cloud Levels
  • Scattered at 5,000' AGL
  • Broken at 6,500' AGL
Temperature
14°C / 57°F
Dewpoint
C / 36°F
Humidity
44%
Altimeter
30.21" Hg
Pressure
1023.02 hPa